»·PEaware :: BOE561 KPDX-KRNO

BOE561 :: KPDX-KRNO

FLIGHT INFORMATION

Flight Status: Arrived
Operator:
Boeing Commercial Airplane Group
More flights by this operator :: More flights under this callsign
Pilot: Ben F. (2808)
Aircraft: BOEING 737-200
(B732)
More flights by this aircraft type
Origin: KPDX Portland Intl
United States
Destination: KRNO Reno/Tahoe Intl
United States
More flights between these airports :: More routes between these airports
Route: +PTLD1 DSD LKV J5 FMG
File this flight plan on PilotEdge
Remarks:
Altitude:
(Current/Filed)
31,000ft
Speed:
(Current/Filed)
425kts
Departed: 25-Feb-18 08:18 AM
Arrived: 25-Feb-18 09:21 AM
Distance/Time
Traveled:
386nm/1:03
Distance/Time
To Go:
Arrived

Flight Plot

Page will automatically refresh every two minutes.

Flight plan parsing failed; only flown route is shown


Map Options




Map Legend


Flown Route
Filed Route
Departure Airport
Arrival Airport
Navaid (VOR, NDB)
Fix

Horizontal Profiles

Position Reports

Time Latitude Longitude Heading Altitude Ground
Speed
25-Feb-18 07:55 45.587872 -122.584503 209 38ft 0kts
25-Feb-18 07:56 45.587872 -122.584503 209 38ft 0kts
25-Feb-18 07:57 45.587872 -122.584503 209 38ft 0kts
25-Feb-18 07:58 45.587872 -122.584503 209 38ft 0kts
25-Feb-18 07:59 45.587872 -122.584503 209 38ft 0kts
25-Feb-18 08:00 45.587872 -122.584503 209 38ft 0kts
25-Feb-18 08:01 45.587872 -122.584503 209 38ft 0kts
25-Feb-18 08:02 45.587872 -122.584503 209 38ft 0kts
25-Feb-18 08:03 45.587872 -122.584503 209 38ft 0kts
25-Feb-18 08:04 45.587872 -122.584503 209 38ft 0kts
25-Feb-18 08:05 45.587872 -122.584503 209 38ft 0kts
25-Feb-18 08:06 45.587872 -122.584503 209 38ft 0kts
25-Feb-18 08:07 45.587872 -122.584503 209 38ft 0kts
25-Feb-18 08:08 45.587872 -122.584503 209 38ft 0kts
25-Feb-18 08:09 45.587872 -122.584503 209 38ft 0kts
25-Feb-18 08:10 45.587872 -122.584503 209 38ft 0kts
25-Feb-18 08:11 45.587872 -122.584503 209 38ft 0kts
25-Feb-18 08:12 45.587872 -122.584503 209 38ft 0kts
25-Feb-18 08:13 45.587872 -122.584503 209 38ft 0kts
25-Feb-18 08:14 45.587872 -122.584503 209 38ft 0kts
25-Feb-18 08:15 45.587872 -122.584503 209 38ft 0kts
25-Feb-18 08:16 45.587872 -122.584503 209 38ft 0kts
25-Feb-18 08:17 45.587872 -122.584503 209 38ft 0kts
25-Feb-18 08:18 45.587772 -122.584516 166 38ft 3kts
25-Feb-18 08:19 45.587901 -122.582831 43 38ft 0kts
25-Feb-18 08:20 45.587901 -122.582831 43 38ft 0kts
25-Feb-18 08:21 45.587124 -122.579196 118 38ft 26kts
25-Feb-18 08:22 45.583315 -122.569370 117 38ft 24kts
25-Feb-18 08:23 45.582729 -122.567365 65 38ft 0kts
25-Feb-18 08:24 45.582743 -122.567321 64 38ft 2kts
25-Feb-18 08:25 45.585206 -122.571182 297 38ft 79kts
25-Feb-18 08:26 45.607465 -122.621368 297 2051ft 179kts
25-Feb-18 08:27 45.635918 -122.686706 295 4549ft 239kts
25-Feb-18 08:28 45.614833 -122.758245 190 7997ft 249kts
25-Feb-18 08:29 45.551434 -122.707940 150 10465ft 311kts
25-Feb-18 08:30 45.479332 -122.628171 149 12313ft 358kts
25-Feb-18 08:31 45.401542 -122.541839 149 14766ft 374kts
25-Feb-18 08:32 45.319954 -122.451692 149 16889ft 389kts
25-Feb-18 08:33 45.249066 -122.373642 149 18482ft 401kts
25-Feb-18 08:34 45.162342 -122.278502 150 20136ft 413kts
25-Feb-18 08:35 45.057479 -122.164029 149 21859ft 424kts
25-Feb-18 08:36 44.979983 -122.079751 148 23070ft 429kts
25-Feb-18 08:37 44.887945 -121.979947 148 24252ft 438kts
25-Feb-18 08:38 44.792613 -121.877057 148 25322ft 445kts
25-Feb-18 08:39 44.694694 -121.771857 148 26248ft 452kts
25-Feb-18 08:40 44.594622 -121.664798 148 27134ft 458kts
25-Feb-18 08:41 44.493589 -121.557215 147 27922ft 464kts
25-Feb-18 08:42 44.390529 -121.447943 147 28640ft 470kts
25-Feb-18 08:43 44.288010 -121.339723 148 29553ft 468kts
25-Feb-18 08:44 44.174155 -121.267006 167 30132ft 456kts
25-Feb-18 08:45 44.055590 -121.211073 169 30885ft 453kts
25-Feb-18 08:46 43.935415 -121.155471 168 31093ft 465kts
25-Feb-18 08:47 43.816588 -121.100723 168 31090ft 467kts
25-Feb-18 08:48 43.694294 -121.044629 168 31089ft 467kts
25-Feb-18 08:49 43.571708 -120.988651 168 31091ft 468kts
25-Feb-18 08:50 43.448755 -120.932742 168 31093ft 469kts
25-Feb-18 08:51 43.325712 -120.877038 168 31094ft 471kts
25-Feb-18 08:52 43.202084 -120.821311 168 31095ft 472kts
25-Feb-18 08:53 43.078363 -120.765771 168 31191ft 471kts
25-Feb-18 08:54 42.955023 -120.710678 168 31243ft 472kts
25-Feb-18 08:55 42.834855 -120.657207 167 31239ft 474kts
25-Feb-18 08:56 42.710500 -120.602124 167 31241ft 476kts
25-Feb-18 08:57 42.585126 -120.546852 167 31242ft 478kts
25-Feb-18 08:58 42.459240 -120.495871 173 31249ft 474kts
25-Feb-18 08:59 42.331943 -120.458030 173 31243ft 476kts
25-Feb-18 09:00 42.204350 -120.419935 173 31246ft 474kts
25-Feb-18 09:01 42.077663 -120.382246 173 31247ft 473kts
25-Feb-18 09:02 41.953576 -120.345465 174 31241ft 472kts
25-Feb-18 09:03 41.834377 -120.310281 174 31247ft 470kts
25-Feb-18 09:04 41.708235 -120.273189 174 31272ft 471kts
25-Feb-18 09:05 41.582817 -120.236414 174 30426ft 456kts
25-Feb-18 09:06 41.461366 -120.201023 173 27846ft 449kts
25-Feb-18 09:07 41.341421 -120.166160 173 25663ft 436kts
25-Feb-18 09:08 41.226753 -120.132939 173 24288ft 420kts
25-Feb-18 09:09 41.109419 -120.099244 173 24279ft 445kts
25-Feb-18 09:10 40.987693 -120.064565 171 24280ft 458kts
25-Feb-18 09:11 40.875602 -120.032607 171 24292ft 465kts
25-Feb-18 09:12 40.754377 -119.998053 171 24191ft 430kts
25-Feb-18 09:13 40.640650 -119.965858 170 21988ft 415kts
25-Feb-18 09:14 40.531320 -119.934942 170 19884ft 401kts
25-Feb-18 09:15 40.424893 -119.904946 169 17863ft 388kts
25-Feb-18 09:16 40.322284 -119.876123 169 16178ft 375kts
25-Feb-18 09:17 40.226578 -119.849283 169 15491ft 341kts
25-Feb-18 09:18 40.136000 -119.823994 170 14441ft 331kts
25-Feb-18 09:19 40.048588 -119.808494 174 13268ft 319kts
25-Feb-18 09:20 39.962529 -119.794469 174 11839ft 313kts
25-Feb-18 09:21 39.881712 -119.783087 174 10515ft 305kts
25-Feb-18 09:22 39.800233 -119.775399 174 9289ft 292kts
25-Feb-18 09:23 39.724942 -119.768391 178 8727ft 259kts
25-Feb-18 09:24 39.655519 -119.768800 177 7415ft 239kts
25-Feb-18 09:25 39.594590 -119.768631 174 6187ft 200kts
25-Feb-18 09:26 39.548452 -119.766820 178 5214ft 150kts
25-Feb-18 09:27 39.508031 -119.766758 180 4424ft 134kts
25-Feb-18 09:28 39.497341 -119.765980 86 4424ft 0kts
25-Feb-18 09:29 39.499405 -119.765217 359 4424ft 14kts
25-Feb-18 09:30 39.501423 -119.764611 175 4424ft 0kts
25-Feb-18 09:31 39.501423 -119.764611 175 4424ft 0kts
25-Feb-18 09:32 39.501423 -119.764611 175 4424ft 0kts
25-Feb-18 09:33 39.501423 -119.764611 175 4424ft 0kts
25-Feb-18 09:34 39.501423 -119.764611 175 4424ft 0kts
25-Feb-18 09:35 39.501423 -119.764611 175 4424ft 0kts
25-Feb-18 09:36 39.501423 -119.764611 175 4424ft 0kts
25-Feb-18 09:37 39.501423 -119.764611 175 4424ft 0kts
25-Feb-18 09:38 39.501423 -119.764611 175 4424ft 0kts
25-Feb-18 09:39 39.501423 -119.764611 175 4424ft 0kts
25-Feb-18 09:40 39.501423 -119.764611 175 4424ft 0kts
25-Feb-18 09:41 39.501423 -119.764611 175 4424ft 0kts

Navigation Log

Ident Type
Flight plan parsing failed, navigation log unavailable